sensor_id;sensor_type;location;lat;lon;timestamp;P1;durP1;ratioP1;P2;durP2;ratioP2
68076;SDS011;54866;53.458;14.540;2022-12-18T00:00:27;9.40;;;3.80;;
68076;SDS011;54866;53.458;14.540;2022-12-18T00:02:57;8.30;;;5.10;;
68076;SDS011;54866;53.458;14.540;2022-12-18T00:05:27;7.60;;;5.10;;
68076;SDS011;54866;53.458;14.540;2022-12-18T00:07:57;9.60;;;5.60;;
68076;SDS011;54866;53.458;14.540;2022-12-18T00:10:26;5.60;;;4.70;;
68076;SDS011;54866;53.458;14.540;2022-12-18T00:12:56;9.80;;;4.00;;
68076;SDS011;54866;53.458;14.540;2022-12-18T00:15:26;9.90;;;4.30;;
68076;SDS011;54866;53.458;14.540;2022-12-18T00:17:56;14.50;;;7.00;;
68076;SDS011;54866;53.458;14.540;2022-12-18T00:20:26;7.20;;;3.30;;
68076;SDS011;54866;53.458;14.540;2022-12-18T00:22:55;13.00;;;5.20;;
68076;SDS011;54866;53.458;14.540;2022-12-18T00:25:25;12.80;;;7.20;;
68076;SDS011;54866;53.458;14.540;2022-12-18T00:27:55;14.60;;;6.40;;
68076;SDS011;54866;53.458;14.540;2022-12-18T00:30:25;8.80;;;4.40;;
68076;SDS011;54866;53.458;14.540;2022-12-18T00:32:55;18.50;;;9.60;;
68076;SDS011;54866;53.458;14.540;2022-12-18T00:35:25;13.80;;;6.60;;
68076;SDS011;54866;53.458;14.540;2022-12-18T00:37:55;11.10;;;5.90;;
68076;SDS011;54866;53.458;14.540;2022-12-18T00:40:24;11.20;;;6.00;;
68076;SDS011;54866;53.458;14.540;2022-12-18T00:42:54;12.60;;;6.80;;
68076;SDS011;54866;53.458;14.540;2022-12-18T00:45:24;15.70;;;6.70;;
68076;SDS011;54866;53.458;14.540;2022-12-18T00:47:55;7.30;;;4.30;;
68076;SDS011;54866;53.458;14.540;2022-12-18T00:50:25;8.50;;;3.90;;
68076;SDS011;54866;53.458;14.540;2022-12-18T00:52:55;8.50;;;4.00;;
68076;SDS011;54866;53.458;14.540;2022-12-18T00:55:25;12.30;;;5.80;;
68076;SDS011;54866;53.458;14.540;2022-12-18T00:57:54;7.10;;;4.40;;
68076;SDS011;54866;53.458;14.540;2022-12-18T01:00:24;7.50;;;3.80;;
68076;SDS011;54866;53.458;14.540;2022-12-18T01:02:54;4.40;;;2.70;;
68076;SDS011;54866;53.458;14.540;2022-12-18T01:05:23;9.30;;;4.50;;
68076;SDS011;54866;53.458;14.540;2022-12-18T01:07:54;10.90;;;5.40;;
68076;SDS011;54866;53.458;14.540;2022-12-18T01:10:25;14.50;;;7.50;;
68076;SDS011;54866;53.458;14.540;2022-12-18T01:12:55;10.70;;;5.30;;
68076;SDS011;54866;53.458;14.540;2022-12-18T01:15:25;14.40;;;7.40;;
68076;SDS011;54866;53.458;14.540;2022-12-18T01:17:54;4.70;;;2.50;;
68076;SDS011;54866;53.458;14.540;2022-12-18T01:20:24;9.90;;;4.60;;
68076;SDS011;54866;53.458;14.540;2022-12-18T01:22:54;3.20;;;2.90;;
68076;SDS011;54866;53.458;14.540;2022-12-18T01:25:24;4.30;;;2.90;;
68076;SDS011;54866;53.458;14.540;2022-12-18T01:27:53;10.90;;;3.40;;
68076;SDS011;54866;53.458;14.540;2022-12-18T01:30:23;10.00;;;5.30;;
68076;SDS011;54866;53.458;14.540;2022-12-18T01:32:53;16.40;;;7.90;;
68076;SDS011;54866;53.458;14.540;2022-12-18T01:35:23;11.80;;;6.30;;
68076;SDS011;54866;53.458;14.540;2022-12-18T01:37:55;8.80;;;4.70;;
68076;SDS011;54866;53.458;14.540;2022-12-18T01:40:25;15.00;;;8.40;;
68076;SDS011;54866;53.458;14.540;2022-12-18T01:42:54;20.70;;;8.40;;
68076;SDS011;54866;53.458;14.540;2022-12-18T01:45:27;23.10;;;9.20;;
68076;SDS011;54866;53.458;14.540;2022-12-18T01:47:59;13.10;;;8.00;;
68076;SDS011;54866;53.458;14.540;2022-12-18T01:50:32;10.50;;;5.90;;
68076;SDS011;54866;53.458;14.540;2022-12-18T01:53:05;18.30;;;6.10;;
68076;SDS011;54866;53.458;14.540;2022-12-18T01:55:40;17.30;;;6.90;;
68076;SDS011;54866;53.458;14.540;2022-12-18T01:58:14;9.80;;;4.10;;
68076;SDS011;54866;53.458;14.540;2022-12-18T02:00:45;5.00;;;3.00;;
68076;SDS011;54866;53.458;14.540;2022-12-18T02:03:15;9.10;;;3.90;;
68076;SDS011;54866;53.458;14.540;2022-12-18T02:05:45;4.00;;;1.80;;
68076;SDS011;54866;53.458;14.540;2022-12-18T02:08:21;7.40;;;4.60;;
68076;SDS011;54866;53.458;14.540;2022-12-18T02:10:59;9.80;;;4.60;;
68076;SDS011;54866;53.458;14.540;2022-12-18T02:13:37;3.50;;;2.40;;
68076;SDS011;54866;53.458;14.540;2022-12-18T02:16:11;7.90;;;5.60;;
68076;SDS011;54866;53.458;14.540;2022-12-18T02:18:47;11.00;;;3.70;;
68076;SDS011;54866;53.458;14.540;2022-12-18T02:21:23;8.30;;;5.50;;
68076;SDS011;54866;53.458;14.540;2022-12-18T02:24:05;6.00;;;3.80;;
68076;SDS011;54866;53.458;14.540;2022-12-18T02:26:45;6.70;;;4.70;;
68076;SDS011;54866;53.458;14.540;2022-12-18T02:29:18;9.40;;;5.60;;
68076;SDS011;54866;53.458;14.540;2022-12-18T02:31:54;8.10;;;4.30;;
68076;SDS011;54866;53.458;14.540;2022-12-18T02:34:29;6.10;;;3.10;;
68076;SDS011;54866;53.458;14.540;2022-12-18T02:37:04;7.30;;;4.20;;
68076;SDS011;54866;53.458;14.540;2022-12-18T02:39:39;11.00;;;5.40;;
68076;SDS011;54866;53.458;14.540;2022-12-18T02:42:11;3.50;;;2.50;;
68076;SDS011;54866;53.458;14.540;2022-12-18T02:44:45;9.10;;;5.40;;
68076;SDS011;54866;53.458;14.540;2022-12-18T02:47:16;8.40;;;4.10;;
68076;SDS011;54866;53.458;14.540;2022-12-18T02:49:52;14.80;;;7.00;;
68076;SDS011;54866;53.458;14.540;2022-12-18T02:52:29;8.40;;;4.20;;
68076;SDS011;54866;53.458;14.540;2022-12-18T02:57:42;9.30;;;4.90;;
68076;SDS011;54866;53.458;14.540;2022-12-18T03:00:18;8.60;;;3.90;;
68076;SDS011;54866;53.458;14.540;2022-12-18T03:05:25;7.30;;;2.40;;
68076;SDS011;54866;53.458;14.540;2022-12-18T03:07:59;7.50;;;4.20;;
68076;SDS011;54866;53.458;14.540;2022-12-18T03:10:34;4.80;;;3.70;;
68076;SDS011;54866;53.458;14.540;2022-12-18T03:15:37;16.90;;;7.80;;
68076;SDS011;54866;53.458;14.540;2022-12-18T03:18:10;17.70;;;7.60;;
68076;SDS011;54866;53.458;14.540;2022-12-18T03:20:45;7.90;;;3.90;;
68076;SDS011;54866;53.458;14.540;2022-12-18T03:23:17;10.00;;;4.30;;
68076;SDS011;54866;53.458;14.540;2022-12-18T03:25:51;8.80;;;5.90;;
68076;SDS011;54866;53.458;14.540;2022-12-18T03:28:23;8.50;;;4.40;;
68076;SDS011;54866;53.458;14.540;2022-12-18T03:30:56;13.20;;;6.00;;
68076;SDS011;54866;53.458;14.540;2022-12-18T03:33:29;11.50;;;5.90;;
68076;SDS011;54866;53.458;14.540;2022-12-18T03:36:05;14.70;;;8.50;;
68076;SDS011;54866;53.458;14.540;2022-12-18T03:38:36;11.10;;;6.40;;
68076;SDS011;54866;53.458;14.540;2022-12-18T03:41:07;23.30;;;8.30;;
68076;SDS011;54866;53.458;14.540;2022-12-18T03:43:45;12.00;;;6.30;;
68076;SDS011;54866;53.458;14.540;2022-12-18T03:46:20;9.10;;;6.00;;
68076;SDS011;54866;53.458;14.540;2022-12-18T03:48:58;8.10;;;4.70;;
68076;SDS011;54866;53.458;14.540;2022-12-18T03:51:36;15.40;;;6.70;;
68076;SDS011;54866;53.458;14.540;2022-12-18T03:54:10;17.90;;;8.50;;
68076;SDS011;54866;53.458;14.540;2022-12-18T03:56:46;13.30;;;7.40;;
68076;SDS011;54866;53.458;14.540;2022-12-18T03:59:21;19.50;;;8.50;;
68076;SDS011;54866;53.458;14.540;2022-12-18T04:01:52;15.00;;;8.60;;
68076;SDS011;54866;53.458;14.540;2022-12-18T04:04:25;13.10;;;8.10;;
68076;SDS011;54866;53.458;14.540;2022-12-18T04:06:56;20.80;;;8.80;;
68076;SDS011;54866;53.458;14.540;2022-12-18T04:09:27;12.70;;;5.80;;
68076;SDS011;54866;53.458;14.540;2022-12-18T04:11:57;9.70;;;5.40;;
68076;SDS011;54866;53.458;14.540;2022-12-18T04:14:27;12.90;;;7.80;;
68076;SDS011;54866;53.458;14.540;2022-12-18T04:17:02;19.90;;;11.00;;
68076;SDS011;54866;53.458;14.540;2022-12-18T04:19:31;28.00;;;13.60;;
68076;SDS011;54866;53.458;14.540;2022-12-18T04:22:01;27.30;;;10.20;;
68076;SDS011;54866;53.458;14.540;2022-12-18T04:24:31;29.90;;;14.70;;
68076;SDS011;54866;53.458;14.540;2022-12-18T04:27:00;39.80;;;15.50;;
68076;SDS011;54866;53.458;14.540;2022-12-18T04:29:30;30.20;;;14.40;;
68076;SDS011;54866;53.458;14.540;2022-12-18T04:32:00;27.90;;;12.30;;
68076;SDS011;54866;53.458;14.540;2022-12-18T04:34:30;36.80;;;18.00;;
68076;SDS011;54866;53.458;14.540;2022-12-18T04:37:00;17.80;;;7.60;;
68076;SDS011;54866;53.458;14.540;2022-12-18T04:39:30;26.00;;;12.00;;
68076;SDS011;54866;53.458;14.540;2022-12-18T04:42:01;36.20;;;14.70;;
68076;SDS011;54866;53.458;14.540;2022-12-18T04:44:30;35.10;;;16.00;;
68076;SDS011;54866;53.458;14.540;2022-12-18T04:47:00;30.70;;;12.30;;
68076;SDS011;54866;53.458;14.540;2022-12-18T04:49:30;24.00;;;9.00;;
68076;SDS011;54866;53.458;14.540;2022-12-18T04:52:00;25.20;;;11.30;;
68076;SDS011;54866;53.458;14.540;2022-12-18T04:54:30;25.60;;;12.10;;
68076;SDS011;54866;53.458;14.540;2022-12-18T04:56:59;25.80;;;11.00;;
68076;SDS011;54866;53.458;14.540;2022-12-18T04:59:29;21.00;;;9.20;;
68076;SDS011;54866;53.458;14.540;2022-12-18T05:01:59;16.10;;;8.00;;
68076;SDS011;54866;53.458;14.540;2022-12-18T05:04:29;19.90;;;10.30;;
68076;SDS011;54866;53.458;14.540;2022-12-18T05:06:59;26.60;;;12.10;;
68076;SDS011;54866;53.458;14.540;2022-12-18T05:09:28;13.80;;;7.20;;
68076;SDS011;54866;53.458;14.540;2022-12-18T05:11:58;33.00;;;13.90;;
68076;SDS011;54866;53.458;14.540;2022-12-18T05:14:28;40.30;;;17.00;;
68076;SDS011;54866;53.458;14.540;2022-12-18T05:16:57;17.60;;;8.10;;
68076;SDS011;54866;53.458;14.540;2022-12-18T05:19:27;32.80;;;13.20;;
68076;SDS011;54866;53.458;14.540;2022-12-18T05:21:57;35.40;;;16.40;;
68076;SDS011;54866;53.458;14.540;2022-12-18T05:24:27;16.50;;;7.70;;
68076;SDS011;54866;53.458;14.540;2022-12-18T05:26:57;29.50;;;14.70;;
68076;SDS011;54866;53.458;14.540;2022-12-18T05:29:27;39.20;;;16.60;;
68076;SDS011;54866;53.458;14.540;2022-12-18T05:31:57;24.80;;;13.90;;
68076;SDS011;54866;53.458;14.540;2022-12-18T05:34:26;36.60;;;12.10;;
68076;SDS011;54866;53.458;14.540;2022-12-18T05:36:56;30.30;;;13.30;;
68076;SDS011;54866;53.458;14.540;2022-12-18T05:39:26;22.20;;;9.70;;
68076;SDS011;54866;53.458;14.540;2022-12-18T05:41:56;13.60;;;6.50;;
68076;SDS011;54866;53.458;14.540;2022-12-18T05:44:26;20.20;;;9.50;;
68076;SDS011;54866;53.458;14.540;2022-12-18T05:46:55;27.20;;;11.30;;
68076;SDS011;54866;53.458;14.540;2022-12-18T05:49:25;9.50;;;5.50;;
68076;SDS011;54866;53.458;14.540;2022-12-18T05:51:55;27.90;;;12.70;;
68076;SDS011;54866;53.458;14.540;2022-12-18T05:54:26;24.70;;;12.60;;
68076;SDS011;54866;53.458;14.540;2022-12-18T05:56:56;23.00;;;9.40;;
68076;SDS011;54866;53.458;14.540;2022-12-18T05:59:26;19.30;;;8.40;;
68076;SDS011;54866;53.458;14.540;2022-12-18T06:01:56;21.90;;;9.30;;
68076;SDS011;54866;53.458;14.540;2022-12-18T06:04:27;17.10;;;8.20;;
68076;SDS011;54866;53.458;14.540;2022-12-18T06:06:57;13.20;;;6.90;;
68076;SDS011;54866;53.458;14.540;2022-12-18T06:09:28;17.90;;;8.40;;
68076;SDS011;54866;53.458;14.540;2022-12-18T06:11:58;12.70;;;6.40;;
68076;SDS011;54866;53.458;14.540;2022-12-18T06:14:28;14.50;;;8.30;;
68076;SDS011;54866;53.458;14.540;2022-12-18T06:16:58;13.80;;;6.90;;
68076;SDS011;54866;53.458;14.540;2022-12-18T06:19:27;14.80;;;7.40;;
68076;SDS011;54866;53.458;14.540;2022-12-18T06:21:57;24.60;;;9.50;;
68076;SDS011;54866;53.458;14.540;2022-12-18T06:24:27;11.60;;;3.80;;
68076;SDS011;54866;53.458;14.540;2022-12-18T06:26:57;17.10;;;7.30;;
68076;SDS011;54866;53.458;14.540;2022-12-18T06:29:27;23.80;;;8.80;;
68076;SDS011;54866;53.458;14.540;2022-12-18T06:31:56;29.70;;;12.00;;
68076;SDS011;54866;53.458;14.540;2022-12-18T06:34:26;19.80;;;7.90;;
68076;SDS011;54866;53.458;14.540;2022-12-18T06:36:56;6.60;;;4.10;;
68076;SDS011;54866;53.458;14.540;2022-12-18T06:39:26;33.80;;;15.40;;
68076;SDS011;54866;53.458;14.540;2022-12-18T06:41:56;29.00;;;13.00;;
68076;SDS011;54866;53.458;14.540;2022-12-18T06:44:26;28.30;;;13.70;;
68076;SDS011;54866;53.458;14.540;2022-12-18T06:46:56;29.60;;;14.60;;
68076;SDS011;54866;53.458;14.540;2022-12-18T06:49:26;17.70;;;9.30;;
68076;SDS011;54866;53.458;14.540;2022-12-18T06:51:55;9.40;;;4.50;;
68076;SDS011;54866;53.458;14.540;2022-12-18T06:54:25;7.30;;;5.20;;
68076;SDS011;54866;53.458;14.540;2022-12-18T06:56:55;24.60;;;11.60;;
68076;SDS011;54866;53.458;14.540;2022-12-18T06:59:24;29.00;;;14.10;;
68076;SDS011;54866;53.458;14.540;2022-12-18T07:01:54;27.00;;;14.20;;
68076;SDS011;54866;53.458;14.540;2022-12-18T07:04:28;29.10;;;12.20;;
68076;SDS011;54866;53.458;14.540;2022-12-18T07:06:58;18.80;;;8.80;;
68076;SDS011;54866;53.458;14.540;2022-12-18T07:09:27;20.00;;;9.70;;
68076;SDS011;54866;53.458;14.540;2022-12-18T07:11:57;22.70;;;9.20;;
68076;SDS011;54866;53.458;14.540;2022-12-18T07:14:27;24.30;;;12.10;;
68076;SDS011;54866;53.458;14.540;2022-12-18T07:16:56;24.20;;;10.40;;
68076;SDS011;54866;53.458;14.540;2022-12-18T07:19:26;21.50;;;13.00;;
68076;SDS011;54866;53.458;14.540;2022-12-18T07:21:56;25.70;;;12.40;;
68076;SDS011;54866;53.458;14.540;2022-12-18T07:24:26;27.00;;;14.00;;
68076;SDS011;54866;53.458;14.540;2022-12-18T07:26:56;26.60;;;14.60;;
68076;SDS011;54866;53.458;14.540;2022-12-18T07:29:26;20.50;;;8.80;;
68076;SDS011;54866;53.458;14.540;2022-12-18T07:31:55;20.10;;;11.40;;
68076;SDS011;54866;53.458;14.540;2022-12-18T07:34:25;28.40;;;12.70;;
68076;SDS011;54866;53.458;14.540;2022-12-18T07:36:55;14.60;;;5.90;;
68076;SDS011;54866;53.458;14.540;2022-12-18T07:39:24;30.10;;;12.40;;
68076;SDS011;54866;53.458;14.540;2022-12-18T07:41:54;20.10;;;9.70;;
68076;SDS011;54866;53.458;14.540;2022-12-18T07:44:41;18.10;;;9.50;;
68076;SDS011;54866;53.458;14.540;2022-12-18T07:47:11;17.60;;;8.30;;
68076;SDS011;54866;53.458;14.540;2022-12-18T07:49:41;25.70;;;11.40;;
68076;SDS011;54866;53.458;14.540;2022-12-18T07:52:10;14.80;;;8.60;;
68076;SDS011;54866;53.458;14.540;2022-12-18T07:54:40;18.30;;;9.30;;
68076;SDS011;54866;53.458;14.540;2022-12-18T07:57:10;27.10;;;12.10;;
68076;SDS011;54866;53.458;14.540;2022-12-18T07:59:40;22.50;;;11.10;;
68076;SDS011;54866;53.458;14.540;2022-12-18T08:02:09;29.30;;;13.80;;
68076;SDS011;54866;53.458;14.540;2022-12-18T08:04:40;27.70;;;16.10;;
68076;SDS011;54866;53.458;14.540;2022-12-18T08:07:10;26.50;;;12.40;;
68076;SDS011;54866;53.458;14.540;2022-12-18T08:09:39;10.60;;;5.40;;
68076;SDS011;54866;53.458;14.540;2022-12-18T08:12:09;16.70;;;8.40;;
68076;SDS011;54866;53.458;14.540;2022-12-18T08:14:39;23.80;;;11.10;;
68076;SDS011;54866;53.458;14.540;2022-12-18T08:17:08;27.60;;;13.90;;
68076;SDS011;54866;53.458;14.540;2022-12-18T08:19:38;18.40;;;8.10;;
68076;SDS011;54866;53.458;14.540;2022-12-18T08:22:08;22.50;;;10.30;;
68076;SDS011;54866;53.458;14.540;2022-12-18T08:24:38;20.00;;;8.20;;
68076;SDS011;54866;53.458;14.540;2022-12-18T08:27:07;27.10;;;12.20;;
68076;SDS011;54866;53.458;14.540;2022-12-18T08:29:37;24.90;;;11.90;;
68076;SDS011;54866;53.458;14.540;2022-12-18T08:32:07;30.30;;;16.30;;
68076;SDS011;54866;53.458;14.540;2022-12-18T08:34:37;22.40;;;10.40;;
68076;SDS011;54866;53.458;14.540;2022-12-18T08:37:06;25.10;;;12.60;;
68076;SDS011;54866;53.458;14.540;2022-12-18T08:39:36;26.80;;;13.20;;
68076;SDS011;54866;53.458;14.540;2022-12-18T08:42:06;30.30;;;15.50;;
68076;SDS011;54866;53.458;14.540;2022-12-18T08:44:53;17.70;;;6.70;;
68076;SDS011;54866;53.458;14.540;2022-12-18T08:47:23;26.10;;;12.20;;
68076;SDS011;54866;53.458;14.540;2022-12-18T08:49:53;28.10;;;15.70;;
68076;SDS011;54866;53.458;14.540;2022-12-18T08:52:23;24.40;;;12.40;;
68076;SDS011;54866;53.458;14.540;2022-12-18T08:54:52;33.80;;;16.30;;
68076;SDS011;54866;53.458;14.540;2022-12-18T08:57:22;24.90;;;11.70;;
68076;SDS011;54866;53.458;14.540;2022-12-18T08:59:52;15.90;;;9.40;;
68076;SDS011;54866;53.458;14.540;2022-12-18T09:02:21;14.10;;;9.00;;
68076;SDS011;54866;53.458;14.540;2022-12-18T09:04:51;16.80;;;8.00;;
68076;SDS011;54866;53.458;14.540;2022-12-18T09:07:21;23.80;;;13.40;;
68076;SDS011;54866;53.458;14.540;2022-12-18T09:09:51;28.80;;;13.70;;
68076;SDS011;54866;53.458;14.540;2022-12-18T09:12:20;28.00;;;14.00;;
68076;SDS011;54866;53.458;14.540;2022-12-18T09:14:50;30.00;;;15.20;;
68076;SDS011;54866;53.458;14.540;2022-12-18T09:17:20;29.90;;;14.40;;
68076;SDS011;54866;53.458;14.540;2022-12-18T09:19:50;33.30;;;14.20;;
68076;SDS011;54866;53.458;14.540;2022-12-18T09:22:20;26.60;;;17.00;;
68076;SDS011;54866;53.458;14.540;2022-12-18T09:24:49;17.90;;;9.80;;
68076;SDS011;54866;53.458;14.540;2022-12-18T09:27:20;18.90;;;9.90;;
68076;SDS011;54866;53.458;14.540;2022-12-18T09:29:50;20.00;;;9.60;;
68076;SDS011;54866;53.458;14.540;2022-12-18T09:32:19;14.80;;;8.30;;
68076;SDS011;54866;53.458;14.540;2022-12-18T09:34:49;13.40;;;5.60;;
68076;SDS011;54866;53.458;14.540;2022-12-18T09:37:19;20.30;;;11.80;;
68076;SDS011;54866;53.458;14.540;2022-12-18T09:39:49;10.20;;;6.00;;
68076;SDS011;54866;53.458;14.540;2022-12-18T09:42:19;20.00;;;11.10;;
68076;SDS011;54866;53.458;14.540;2022-12-18T09:44:50;14.10;;;8.30;;
68076;SDS011;54866;53.458;14.540;2022-12-18T09:47:23;11.00;;;6.90;;
68076;SDS011;54866;53.458;14.540;2022-12-18T09:49:56;16.20;;;9.60;;
68076;SDS011;54866;53.458;14.540;2022-12-18T09:52:30;11.00;;;6.30;;
68076;SDS011;54866;53.458;14.540;2022-12-18T09:55:08;18.80;;;10.10;;
68076;SDS011;54866;53.458;14.540;2022-12-18T09:57:47;18.70;;;7.10;;
68076;SDS011;54866;53.458;14.540;2022-12-18T10:00:21;17.50;;;8.10;;
68076;SDS011;54866;53.458;14.540;2022-12-18T10:02:53;11.60;;;5.80;;
68076;SDS011;54866;53.458;14.540;2022-12-18T10:05:28;14.80;;;7.30;;
68076;SDS011;54866;53.458;14.540;2022-12-18T10:08:05;18.40;;;8.80;;
68076;SDS011;54866;53.458;14.540;2022-12-18T10:10:41;9.10;;;4.70;;
68076;SDS011;54866;53.458;14.540;2022-12-18T10:13:17;26.20;;;12.40;;
68076;SDS011;54866;53.458;14.540;2022-12-18T10:15:54;19.80;;;8.90;;
68076;SDS011;54866;53.458;14.540;2022-12-18T10:18:36;11.00;;;6.60;;
68076;SDS011;54866;53.458;14.540;2022-12-18T10:21:18;22.00;;;12.90;;
68076;SDS011;54866;53.458;14.540;2022-12-18T10:23:55;13.80;;;7.00;;
68076;SDS011;54866;53.458;14.540;2022-12-18T10:26:30;16.40;;;7.90;;
68076;SDS011;54866;53.458;14.540;2022-12-18T10:29:01;23.70;;;12.00;;
68076;SDS011;54866;53.458;14.540;2022-12-18T10:31:32;29.70;;;17.80;;
68076;SDS011;54866;53.458;14.540;2022-12-18T10:34:02;26.80;;;15.00;;
68076;SDS011;54866;53.458;14.540;2022-12-18T10:36:31;8.30;;;6.40;;
68076;SDS011;54866;53.458;14.540;2022-12-18T10:39:07;21.10;;;11.90;;
68076;SDS011;54866;53.458;14.540;2022-12-18T10:41:44;23.70;;;13.00;;
68076;SDS011;54866;53.458;14.540;2022-12-18T10:44:16;27.80;;;16.00;;
68076;SDS011;54866;53.458;14.540;2022-12-18T10:46:48;26.70;;;12.10;;
68076;SDS011;54866;53.458;14.540;2022-12-18T10:49:23;26.00;;;15.10;;
68076;SDS011;54866;53.458;14.540;2022-12-18T10:52:05;15.70;;;9.70;;
68076;SDS011;54866;53.458;14.540;2022-12-18T10:54:45;28.10;;;15.70;;
68076;SDS011;54866;53.458;14.540;2022-12-18T10:57:19;35.80;;;20.90;;
68076;SDS011;54866;53.458;14.540;2022-12-18T11:00:03;12.90;;;9.00;;
68076;SDS011;54866;53.458;14.540;2022-12-18T11:02:51;7.30;;;5.40;;
68076;SDS011;54866;53.458;14.540;2022-12-18T11:05:25;13.90;;;7.30;;
68076;SDS011;54866;53.458;14.540;2022-12-18T11:07:56;15.60;;;8.40;;
68076;SDS011;54866;53.458;14.540;2022-12-18T11:10:28;26.70;;;15.30;;
68076;SDS011;54866;53.458;14.540;2022-12-18T11:13:10;24.00;;;11.90;;
68076;SDS011;54866;53.458;14.540;2022-12-18T11:15:45;21.80;;;8.20;;
68076;SDS011;54866;53.458;14.540;2022-12-18T11:18:17;38.00;;;17.30;;
68076;SDS011;54866;53.458;14.540;2022-12-18T11:20:53;32.10;;;15.60;;
68076;SDS011;54866;53.458;14.540;2022-12-18T11:23:25;29.70;;;14.10;;
68076;SDS011;54866;53.458;14.540;2022-12-18T11:25:56;29.40;;;14.50;;
68076;SDS011;54866;53.458;14.540;2022-12-18T11:28:37;10.20;;;5.40;;
68076;SDS011;54866;53.458;14.540;2022-12-18T11:33:59;22.50;;;10.90;;
68076;SDS011;54866;53.458;14.540;2022-12-18T11:36:33;28.30;;;16.20;;
68076;SDS011;54866;53.458;14.540;2022-12-18T11:39:09;28.80;;;14.70;;
68076;SDS011;54866;53.458;14.540;2022-12-18T11:41:47;27.40;;;14.20;;
68076;SDS011;54866;53.458;14.540;2022-12-18T11:44:41;19.50;;;10.60;;
68076;SDS011;54866;53.458;14.540;2022-12-18T11:47:15;24.80;;;11.40;;
68076;SDS011;54866;53.458;14.540;2022-12-18T11:49:52;18.50;;;11.50;;
68076;SDS011;54866;53.458;14.540;2022-12-18T11:52:24;23.40;;;12.70;;
68076;SDS011;54866;53.458;14.540;2022-12-18T11:55:00;22.50;;;11.20;;
68076;SDS011;54866;53.458;14.540;2022-12-18T11:57:34;24.10;;;15.50;;
68076;SDS011;54866;53.458;14.540;2022-12-18T12:00:13;20.60;;;11.10;;
68076;SDS011;54866;53.458;14.540;2022-12-18T12:06:03;26.20;;;14.10;;
68076;SDS011;54866;53.458;14.540;2022-12-18T12:08:45;20.10;;;8.00;;
68076;SDS011;54866;53.458;14.540;2022-12-18T12:11:27;23.80;;;12.80;;
68076;SDS011;54866;53.458;14.540;2022-12-18T12:14:14;26.00;;;12.70;;
68076;SDS011;54866;53.458;14.540;2022-12-18T12:17:08;20.20;;;14.50;;
68076;SDS011;54866;53.458;14.540;2022-12-18T12:19:48;25.70;;;14.50;;
68076;SDS011;54866;53.458;14.540;2022-12-18T12:22:26;25.80;;;15.00;;
68076;SDS011;54866;53.458;14.540;2022-12-18T12:25:07;19.30;;;10.40;;
68076;SDS011;54866;53.458;14.540;2022-12-18T12:27:48;20.60;;;9.90;;
68076;SDS011;54866;53.458;14.540;2022-12-18T12:30:24;25.60;;;12.20;;
68076;SDS011;54866;53.458;14.540;2022-12-18T12:33:08;16.30;;;9.70;;
68076;SDS011;54866;53.458;14.540;2022-12-18T12:35:51;14.50;;;9.40;;
68076;SDS011;54866;53.458;14.540;2022-12-18T12:38:28;12.00;;;7.20;;
68076;SDS011;54866;53.458;14.540;2022-12-18T12:41:03;18.10;;;9.00;;
68076;SDS011;54866;53.458;14.540;2022-12-18T12:43:55;32.50;;;15.50;;
68076;SDS011;54866;53.458;14.540;2022-12-18T12:46:27;33.30;;;17.70;;
68076;SDS011;54866;53.458;14.540;2022-12-18T12:49:07;32.50;;;14.90;;
68076;SDS011;54866;53.458;14.540;2022-12-18T12:51:41;19.80;;;12.80;;
68076;SDS011;54866;53.458;14.540;2022-12-18T12:54:16;30.40;;;14.50;;
68076;SDS011;54866;53.458;14.540;2022-12-18T12:56:50;28.90;;;15.40;;
68076;SDS011;54866;53.458;14.540;2022-12-18T12:59:27;19.70;;;9.80;;
68076;SDS011;54866;53.458;14.540;2022-12-18T13:02:05;29.80;;;17.80;;
68076;SDS011;54866;53.458;14.540;2022-12-18T13:04:44;23.70;;;13.20;;
68076;SDS011;54866;53.458;14.540;2022-12-18T13:07:23;25.50;;;15.40;;
68076;SDS011;54866;53.458;14.540;2022-12-18T13:10:13;21.00;;;9.70;;
68076;SDS011;54866;53.458;14.540;2022-12-18T13:12:53;33.80;;;17.70;;
68076;SDS011;54866;53.458;14.540;2022-12-18T13:15:26;20.20;;;12.10;;
68076;SDS011;54866;53.458;14.540;2022-12-18T13:18:16;26.10;;;14.10;;
68076;SDS011;54866;53.458;14.540;2022-12-18T13:20:47;13.50;;;6.90;;
68076;SDS011;54866;53.458;14.540;2022-12-18T13:23:34;30.60;;;17.20;;
68076;SDS011;54866;53.458;14.540;2022-12-18T13:29:01;21.40;;;11.50;;
68076;SDS011;54866;53.458;14.540;2022-12-18T13:34:36;21.10;;;10.60;;
68076;SDS011;54866;53.458;14.540;2022-12-18T13:43:28;19.20;;;10.80;;
68076;SDS011;54866;53.458;14.540;2022-12-18T13:46:02;20.60;;;10.20;;
68076;SDS011;54866;53.458;14.540;2022-12-18T13:48:35;32.20;;;18.00;;
68076;SDS011;54866;53.458;14.540;2022-12-18T13:51:07;30.30;;;15.90;;
68076;SDS011;54866;53.458;14.540;2022-12-18T13:53:42;21.50;;;12.20;;
68076;SDS011;54866;53.458;14.540;2022-12-18T13:56:22;19.30;;;11.60;;
68076;SDS011;54866;53.458;14.540;2022-12-18T14:02:07;21.90;;;12.60;;
68076;SDS011;54866;53.458;14.540;2022-12-18T14:04:44;17.60;;;8.60;;
68076;SDS011;54866;53.458;14.540;2022-12-18T14:07:15;19.60;;;11.20;;
68076;SDS011;54866;53.458;14.540;2022-12-18T14:09:48;31.50;;;19.00;;
68076;SDS011;54866;53.458;14.540;2022-12-18T14:12:20;28.50;;;16.80;;
68076;SDS011;54866;53.458;14.540;2022-12-18T14:15:14;28.80;;;15.60;;
68076;SDS011;54866;53.458;14.540;2022-12-18T14:17:51;20.90;;;11.80;;
68076;SDS011;54866;53.458;14.540;2022-12-18T14:20:22;27.50;;;12.30;;
68076;SDS011;54866;53.458;14.540;2022-12-18T14:22:54;24.50;;;15.20;;
68076;SDS011;54866;53.458;14.540;2022-12-18T14:25:24;24.30;;;13.60;;
68076;SDS011;54866;53.458;14.540;2022-12-18T14:28:04;27.20;;;14.60;;
68076;SDS011;54866;53.458;14.540;2022-12-18T14:30:41;9.10;;;5.90;;
68076;SDS011;54866;53.458;14.540;2022-12-18T14:33:12;19.90;;;14.90;;
68076;SDS011;54866;53.458;14.540;2022-12-18T14:35:51;26.50;;;14.50;;
68076;SDS011;54866;53.458;14.540;2022-12-18T14:38:25;30.10;;;15.30;;
68076;SDS011;54866;53.458;14.540;2022-12-18T14:40:57;22.60;;;13.30;;
68076;SDS011;54866;53.458;14.540;2022-12-18T14:43:29;30.60;;;18.00;;
68076;SDS011;54866;53.458;14.540;2022-12-18T14:45:59;23.10;;;12.10;;
68076;SDS011;54866;53.458;14.540;2022-12-18T14:48:37;27.00;;;15.00;;
68076;SDS011;54866;53.458;14.540;2022-12-18T14:51:15;22.10;;;14.20;;
68076;SDS011;54866;53.458;14.540;2022-12-18T14:53:47;28.30;;;13.10;;
68076;SDS011;54866;53.458;14.540;2022-12-18T14:56:21;19.20;;;12.80;;
68076;SDS011;54866;53.458;14.540;2022-12-18T14:58:53;21.30;;;11.30;;
68076;SDS011;54866;53.458;14.540;2022-12-18T15:01:25;22.90;;;13.30;;
68076;SDS011;54866;53.458;14.540;2022-12-18T15:03:58;20.70;;;11.50;;
68076;SDS011;54866;53.458;14.540;2022-12-18T15:06:33;25.40;;;16.00;;
68076;SDS011;54866;53.458;14.540;2022-12-18T15:09:20;26.70;;;17.30;;
68076;SDS011;54866;53.458;14.540;2022-12-18T15:11:54;30.30;;;16.10;;
68076;SDS011;54866;53.458;14.540;2022-12-18T15:14:30;20.70;;;8.50;;
68076;SDS011;54866;53.458;14.540;2022-12-18T15:17:03;25.30;;;13.80;;
68076;SDS011;54866;53.458;14.540;2022-12-18T15:19:38;33.10;;;19.40;;